Time;durP1;ratioP1;P1;durP2;ratioP2;P2;SDS_P1;SDS_P2;PMS_P1;PMS_P2;Temp;Humidity;BMP_temperature;BMP_pressure;BME280_temperature;BME280_humidity;BME280_pressure;Samples;Min_cycle;Max_cycle;Signal;HPM_P1;HPM_P2
2020/12/19 00:00:31;;;;;;;2.90;2.10;;;;;;;20.38;42.95;99932.19;4992843;28;20030;-75
2020/12/19 00:02:56;;;;;;;3.70;2.22;;;;;;;20.38;42.96;99928.69;5012186;28;20034;-75
2020/12/19 00:05:21;;;;;;;3.88;2.53;;;;;;;20.39;43.00;99925.16;4993265;28;20126;-75
2020/12/19 00:07:47;;;;;;;3.22;2.30;;;;;;;20.37;43.02;99940.97;5007321;28;20030;-75
2020/12/19 00:10:12;;;;;;;2.85;1.95;;;;;;;20.37;43.16;99938.34;5012400;28;20513;-72
2020/12/19 00:12:38;;;;;;;2.92;2.08;;;;;;;20.36;42.89;99939.25;5009468;28;20049;-71
2020/12/19 00:15:03;;;;;;;3.08;2.00;;;;;;;20.38;42.89;99939.22;5011501;28;20033;-75
2020/12/19 00:17:29;;;;;;;3.67;2.35;;;;;;;20.37;42.80;99940.97;4998601;28;20050;-76
2020/12/19 00:19:54;;;;;;;3.33;2.25;;;;;;;20.37;42.99;99934.88;4992670;28;20042;-76
2020/12/19 00:22:21;;;;;;;3.25;2.55;;;;;;;20.38;42.93;99921.66;4999794;28;20041;-75
2020/12/19 00:24:47;;;;;;;4.07;2.28;;;;;;;20.38;43.06;99931.31;5010990;28;20553;-76
2020/12/19 00:27:13;;;;;;;2.85;1.77;;;;;;;20.38;43.03;99920.81;5008121;28;20053;-75
2020/12/19 00:29:38;;;;;;;3.45;2.20;;;;;;;20.37;42.92;99919.06;5009229;28;20034;-73
2020/12/19 00:32:05;;;;;;;3.63;2.28;;;;;;;20.37;43.07;99916.44;5010601;28;20060;-76
2020/12/19 00:34:30;;;;;;;3.13;2.15;;;;;;;20.36;42.89;99905.03;5012575;28;20091;-76
2020/12/19 00:36:55;;;;;;;3.28;2.40;;;;;;;20.37;42.80;99900.66;5012229;28;20505;-76
2020/12/19 00:39:21;;;;;;;4.35;2.53;;;;;;;20.36;43.00;99891.88;5009037;28;20503;-72
2020/12/19 00:41:46;;;;;;;3.00;2.28;;;;;;;20.36;43.00;99898.94;5006018;28;20034;-75
2020/12/19 00:44:12;;;;;;;3.08;2.25;;;;;;;20.37;42.97;99895.38;5011769;28;20045;-72
2020/12/19 00:46:37;;;;;;;3.47;2.10;;;;;;;20.36;42.82;99888.41;5011678;28;20044;-74
2020/12/19 00:49:04;;;;;;;2.58;2.05;;;;;;;20.35;43.04;99895.41;5010857;28;20112;-74
2020/12/19 00:51:29;;;;;;;2.97;2.03;;;;;;;20.36;42.84;99891.88;4992327;28;20030;-75
2020/12/19 00:53:55;;;;;;;3.85;2.40;;;;;;;20.33;42.90;99881.44;4991802;28;20406;-75
2020/12/19 00:56:24;;;;;;;3.78;2.83;;;;;;;20.34;42.98;99888.41;4987510;28;20033;-75
2020/12/19 00:58:52;;;;;;;2.85;2.25;;;;;;;20.34;42.87;99885.78;5010571;28;20034;-75
2020/12/19 01:01:20;;;;;;;2.47;1.92;;;;;;;20.32;43.09;99884.97;5010559;28;20509;-78
2020/12/19 01:03:46;;;;;;;2.45;2.15;;;;;;;20.33;42.71;99889.31;5011842;28;20042;-74
2020/12/19 01:06:20;;;;;;;2.80;2.20;;;;;;;20.32;42.79;99879.69;5009898;28;20062;-75
2020/12/19 01:08:48;;;;;;;3.10;2.08;;;;;;;20.32;42.95;99873.59;5010213;28;20105;-72
2020/12/19 01:11:16;;;;;;;2.80;2.10;;;;;;;20.33;43.10;99876.16;5010372;28;20136;-76
2020/12/19 01:13:42;;;;;;;2.05;1.73;;;;;;;20.34;43.02;99875.25;4995824;28;20042;-73
2020/12/19 01:16:08;;;;;;;3.35;2.22;;;;;;;20.34;42.88;99871.78;4994143;28;20041;-73
2020/12/19 01:18:34;;;;;;;5.05;1.98;;;;;;;20.32;43.08;99871.81;5010560;28;20030;-75
2020/12/19 01:21:00;;;;;;;2.80;1.92;;;;;;;20.34;43.04;99879.69;5000247;28;20113;-75
2020/12/19 01:23:25;;;;;;;2.72;1.83;;;;;;;20.35;43.08;99878.78;4991802;28;20534;-72
2020/12/19 01:25:50;;;;;;;2.95;2.00;;;;;;;20.36;43.09;99870.81;4993494;28;20034;-75
2020/12/19 01:28:16;;;;;;;3.70;2.63;;;;;;;20.36;43.12;99883.13;5008766;28;20042;-73
2020/12/19 01:30:41;;;;;;;2.63;1.90;;;;;;;20.35;42.91;99871.72;5011689;28;20030;-72
2020/12/19 01:33:06;;;;;;;5.57;2.00;;;;;;;20.34;42.83;99867.38;4995900;28;20045;-71
2020/12/19 01:35:32;;;;;;;2.85;2.13;;;;;;;20.34;42.79;99877.88;4991485;28;20080;-72
2020/12/19 01:37:57;;;;;;;2.38;1.80;;;;;;;20.37;42.69;99876.97;4989453;28;20035;-78
2020/12/19 01:40:22;;;;;;;2.08;1.65;;;;;;;20.32;42.78;99863.91;4995801;28;20038;-74
2020/12/19 01:42:48;;;;;;;2.70;2.00;;;;;;;20.34;43.14;99869.16;5010020;28;20093;-75
2020/12/19 01:45:13;;;;;;;4.03;2.10;;;;;;;20.35;42.98;99868.25;5011513;28;20046;-74
2020/12/19 01:47:39;;;;;;;2.75;1.73;;;;;;;20.34;43.00;99867.38;4997597;28;20062;-72
2020/12/19 01:50:06;;;;;;;2.38;1.73;;;;;;;20.34;43.03;99870.00;4991745;28;20047;-75
2020/12/19 01:52:32;;;;;;;2.63;1.98;;;;;;;20.34;42.95;99864.75;4991759;28;20030;-73
2020/12/19 01:54:58;;;;;;;2.10;1.67;;;;;;;20.33;42.86;99849.00;4991765;28;20392;-77
2020/12/19 01:57:31;;;;;;;3.03;1.73;;;;;;;20.32;42.89;99860.44;5002773;28;20117;-73
2020/12/19 01:59:57;;;;;;;3.63;2.40;;;;;;;20.31;42.71;99867.47;5011088;28;20030;-76
2020/12/19 02:02:24;;;;;;;2.90;2.17;;;;;;;20.33;42.86;99865.63;5000919;28;20045;-74
2020/12/19 02:04:50;;;;;;;2.40;1.90;;;;;;;20.34;43.07;99856.00;4993949;28;20034;-77
2020/12/19 02:07:17;;;;;;;3.08;2.10;;;;;;;20.33;42.84;99857.75;4994113;28;20045;-74
2020/12/19 02:09:42;;;;;;;3.42;1.88;;;;;;;20.34;43.01;99842.84;4995148;28;20442;-75
2020/12/19 02:12:09;;;;;;;2.03;1.60;;;;;;;20.32;42.89;99837.59;4999086;28;20030;-72
2020/12/19 02:14:35;;;;;;;2.88;2.05;;;;;;;20.35;42.85;99847.19;5013355;28;20042;-72
2020/12/19 02:17:07;;;;;;;2.95;1.80;;;;;;;20.33;42.96;99849.84;5005457;28;20054;-73
2020/12/19 02:19:33;;;;;;;2.92;2.05;;;;;;;20.34;43.04;99841.06;4995140;28;20046;-74
2020/12/19 02:22:07;;;;;;;2.00;1.60;;;;;;;20.32;42.77;99839.38;4998358;28;20061;-73
2020/12/19 02:24:33;;;;;;;3.50;1.75;;;;;;;20.34;42.89;99840.19;5010453;28;20487;-76
2020/12/19 02:26:59;;;;;;;2.90;2.00;;;;;;;20.31;42.96;99837.66;4999901;28;20046;-75
2020/12/19 02:29:27;;;;;;;2.55;1.98;;;;;;;20.33;43.10;99835.84;4994869;28;20042;-73
2020/12/19 02:31:54;;;;;;;3.78;1.80;;;;;;;20.32;42.96;99842.84;4994416;28;20042;-75
2020/12/19 02:34:20;;;;;;;2.67;2.03;;;;;;;20.33;42.88;99838.47;4994844;28;20057;-73
2020/12/19 02:36:45;;;;;;;2.88;1.98;;;;;;;20.33;42.97;99825.31;4994645;28;20466;-72
2020/12/19 02:39:11;;;;;;;4.07;2.00;;;;;;;20.33;43.12;99822.69;4993632;28;20035;-76
2020/12/19 02:41:38;;;;;;;2.42;1.90;;;;;;;20.33;42.84;99817.44;4987493;28;20038;-76
2020/12/19 02:44:07;;;;;;;2.13;1.50;;;;;;;20.34;42.84;99819.16;5011816;28;20041;-72
2020/12/19 02:46:32;;;;;;;2.10;1.60;;;;;;;20.34;43.00;99827.91;5001085;28;20047;-71
2020/12/19 02:48:58;;;;;;;2.15;1.67;;;;;;;20.35;42.85;99820.88;4999001;28;20042;-74
2020/12/19 02:51:23;;;;;;;2.80;1.75;;;;;;;20.35;42.82;99820.88;4993300;28;20038;-76
2020/12/19 02:53:49;;;;;;;2.60;1.92;;;;;;;20.35;43.02;99819.09;4994561;28;20049;-76
2020/12/19 02:56:14;;;;;;;2.40;1.98;;;;;;;20.34;43.04;99817.38;4995328;28;20088;-76
2020/12/19 02:58:39;;;;;;;2.80;1.75;;;;;;;20.32;42.97;99821.81;4994397;28;20038;-75
2020/12/19 03:01:05;;;;;;;2.97;1.83;;;;;;;20.34;42.97;99821.78;4995301;28;20038;-76
2020/12/19 03:03:30;;;;;;;2.45;1.70;;;;;;;20.33;42.86;99820.06;5012195;28;20045;-72
2020/12/19 03:05:56;;;;;;;2.65;1.75;;;;;;;20.34;42.54;99817.38;5013029;28;20070;-74
2020/12/19 03:08:21;;;;;;;2.58;1.70;;;;;;;20.35;42.93;99819.09;5011459;28;20417;-73
2020/12/19 03:10:47;;;;;;;3.17;1.95;;;;;;;20.34;42.75;99814.75;5011611;28;20033;-72
2020/12/19 03:13:12;;;;;;;2.90;1.88;;;;;;;20.35;42.95;99811.19;5012629;28;20528;-76
2020/12/19 03:15:37;;;;;;;2.67;1.60;;;;;;;20.33;43.12;99799.84;5011488;28;20050;-72
2020/12/19 03:18:03;;;;;;;2.65;1.75;;;;;;;20.34;43.05;99800.72;4995087;28;20030;-73
2020/12/19 03:20:28;;;;;;;3.20;1.80;;;;;;;20.34;43.14;99791.06;4992156;28;20034;-75
2020/12/19 03:22:54;;;;;;;2.53;1.63;;;;;;;20.35;42.96;99791.94;5004815;28;20046;-73
2020/12/19 03:25:19;;;;;;;2.75;1.90;;;;;;;20.35;42.91;99787.53;5007747;28;20119;-75
2020/12/19 03:27:45;;;;;;;2.28;1.58;;;;;;;20.34;43.03;99785.78;4996476;28;20046;-73
2020/12/19 03:30:11;;;;;;;2.97;1.85;;;;;;;20.35;43.04;99795.41;4993437;28;20045;-72
2020/12/19 03:32:36;;;;;;;2.33;1.83;;;;;;;20.36;42.80;99786.63;4993476;28;20034;-75
2020/12/19 03:35:02;;;;;;;4.50;1.90;;;;;;;20.33;43.07;99791.97;4998360;28;20096;-75
2020/12/19 03:37:27;;;;;;;2.20;1.60;;;;;;;20.32;42.90;99787.59;5012565;28;20046;-75
2020/12/19 03:39:52;;;;;;;2.55;1.80;;;;;;;20.32;42.91;99779.69;5011491;28;20038;-75
2020/12/19 03:42:18;;;;;;;1.98;1.50;;;;;;;20.32;42.86;99782.34;5008612;28;20496;-73
2020/12/19 03:44:43;;;;;;;4.50;2.13;;;;;;;20.33;42.81;99781.44;4997340;28;20034;-74
2020/12/19 03:47:09;;;;;;;2.33;1.63;;;;;;;20.33;43.09;99773.53;4994239;28;20070;-76
2020/12/19 03:49:34;;;;;;;2.63;1.58;;;;;;;20.32;43.02;99774.44;5004195;28;20045;-72
2020/12/19 03:52:00;;;;;;;2.28;1.77;;;;;;;20.33;43.05;99770.06;5004808;28;20069;-74
2020/12/19 03:54:25;;;;;;;2.63;1.77;;;;;;;20.32;42.77;99774.44;5000448;28;20509;-71
2020/12/19 03:56:51;;;;;;;3.28;2.00;;;;;;;20.33;42.84;99770.91;5010593;28;20037;-75
2020/12/19 03:59:16;;;;;;;2.20;1.60;;;;;;;20.34;42.90;99770.00;5011955;28;20045;-71
2020/12/19 04:01:42;;;;;;;3.72;1.60;;;;;;;20.32;43.03;99771.81;5011232;28;20061;-74
2020/12/19 04:04:07;;;;;;;1.92;1.58;;;;;;;20.33;42.95;99762.16;5005474;28;20117;-73
2020/12/19 04:06:33;;;;;;;2.65;1.88;;;;;;;20.33;43.03;99757.75;4994117;28;20188;-78
2020/12/19 04:08:59;;;;;;;2.00;1.55;;;;;;;20.32;42.76;99766.53;5006667;28;20034;-74
2020/12/19 04:11:24;;;;;;;2.42;1.70;;;;;;;20.32;42.91;99753.38;5011467;28;20060;-79
2020/12/19 04:13:49;;;;;;;2.72;1.80;;;;;;;20.32;42.93;99756.03;5011162;28;20030;-76
2020/12/19 04:16:15;;;;;;;2.20;1.60;;;;;;;20.33;42.88;99754.28;5009472;28;20038;-72
2020/12/19 04:18:40;;;;;;;2.13;1.60;;;;;;;20.34;42.96;99748.94;5010680;28;20057;-73
2020/12/19 04:21:06;;;;;;;2.42;1.50;;;;;;;20.33;42.78;99734.06;5011982;28;20068;-75
2020/12/19 04:23:33;;;;;;;3.70;2.05;;;;;;;20.32;42.49;99732.34;5009744;28;20077;-74
2020/12/19 04:25:59;;;;;;;3.05;2.30;;;;;;;20.33;42.86;99731.44;5009975;28;20049;-73
2020/12/19 04:28:24;;;;;;;4.35;1.75;;;;;;;20.31;42.89;99735.91;4993597;28;20109;-73
2020/12/19 04:30:50;;;;;;;2.67;1.90;;;;;;;20.30;42.81;99731.56;4994349;28;20110;-80
2020/12/19 04:33:15;;;;;;;2.92;1.63;;;;;;;20.32;42.75;99731.50;4996383;28;20062;-75
2020/12/19 04:35:41;;;;;;;2.85;2.13;;;;;;;20.32;42.83;99726.22;4999792;28;20031;-73
2020/12/19 04:38:06;;;;;;;3.50;1.70;;;;;;;20.32;42.75;99727.06;4991035;28;20042;-72
2020/12/19 04:40:32;;;;;;;2.38;1.67;;;;;;;20.31;42.77;99709.59;4996241;28;20033;-74
2020/12/19 04:42:59;;;;;;;4.10;1.70;;;;;;;20.34;42.85;99716.53;5010855;28;20037;-74
2020/12/19 04:45:24;;;;;;;2.50;1.98;;;;;;;20.33;42.76;99704.28;5011420;28;20054;-73
2020/12/19 04:47:50;;;;;;;2.53;1.77;;;;;;;20.34;42.82;99703.38;5009410;28;20049;-71
2020/12/19 04:50:16;;;;;;;1.95;1.55;;;;;;;20.32;42.83;99698.13;5000399;28;20413;-72
2020/12/19 04:52:42;;;;;;;3.05;1.80;;;;;;;20.31;42.82;99699.06;4992510;28;20084;-74
2020/12/19 04:55:08;;;;;;;2.08;1.60;;;;;;;20.31;42.86;99695.56;4991068;28;20038;-76
2020/12/19 04:57:33;;;;;;;2.00;1.50;;;;;;;20.32;42.95;99700.75;4992812;28;20053;-75
2020/12/19 04:59:59;;;;;;;2.15;1.40;;;;;;;20.32;42.89;99698.13;4991573;28;20034;-72
2020/12/19 05:02:24;;;;;;;2.88;1.80;;;;;;;20.32;42.65;99700.75;4992877;28;20038;-75
2020/12/19 05:04:49;;;;;;;3.08;1.83;;;;;;;20.33;42.84;99697.22;5009633;28;20515;-76
2020/12/19 05:07:15;;;;;;;2.78;1.95;;;;;;;20.33;42.77;99686.69;4996658;28;20501;-71
2020/12/19 05:09:42;;;;;;;2.92;1.60;;;;;;;20.32;43.08;99689.38;5006201;28;20033;-75
2020/12/19 05:12:09;;;;;;;2.88;1.75;;;;;;;20.32;42.95;99692.88;5011132;28;20073;-76
2020/12/19 05:14:36;;;;;;;6.95;1.80;;;;;;;20.33;42.99;99686.69;4996418;28;20050;-75
2020/12/19 05:17:02;;;;;;;2.38;2.00;;;;;;;20.33;42.77;99688.50;4999203;28;20042;-71
2020/12/19 05:19:28;;;;;;;2.90;1.70;;;;;;;20.33;42.97;99684.06;5002938;28;20050;-75
2020/12/19 05:21:55;;;;;;;3.17;1.67;;;;;;;20.33;42.70;99688.50;4994373;28;20042;-76
2020/12/19 05:24:27;;;;;;;3.90;1.80;;;;;;;20.33;42.79;99683.22;5010714;28;20042;-73
2020/12/19 05:26:52;;;;;;;2.70;1.70;;;;;;;20.33;42.99;99689.34;5004991;28;20541;-72
2020/12/19 05:29:18;;;;;;;3.03;1.88;;;;;;;20.32;42.75;99682.34;4992063;28;20030;-72
2020/12/19 05:31:50;;;;;;;2.00;1.70;;;;;;;20.31;42.91;99683.28;5007597;28;20443;-72
2020/12/19 05:34:16;;;;;;;3.22;2.10;;;;;;;20.33;42.86;99678.81;5004463;28;20042;-73
2020/12/19 05:36:41;;;;;;;2.92;1.88;;;;;;;20.31;42.92;99677.16;5005433;28;20037;-71
2020/12/19 05:39:08;;;;;;;3.30;1.95;;;;;;;20.31;42.62;99677.16;4994138;28;20030;-73
2020/12/19 05:41:43;;;;;;;2.70;1.88;;;;;;;20.31;42.96;99677.16;5004524;28;20044;-75
2020/12/19 05:44:09;;;;;;;5.07;1.92;;;;;;;20.33;42.83;99676.19;5005149;28;20510;-79
2020/12/19 05:46:37;;;;;;;2.35;1.77;;;;;;;20.31;42.90;99675.38;5005489;28;20045;-76
2020/12/19 05:49:04;;;;;;;2.20;1.67;;;;;;;20.32;42.89;99677.09;4996778;28;20066;-74
2020/12/19 05:51:31;;;;;;;2.75;1.83;;;;;;;20.33;42.65;99686.69;5001776;28;20026;-75
2020/12/19 05:54:05;;;;;;;2.92;1.95;;;;;;;20.31;42.75;99683.28;5011402;28;20410;-73
2020/12/19 05:56:50;;;;;;;3.38;2.20;;;;;;;20.29;42.85;99682.47;5012795;28;20092;-76
2020/12/19 05:59:18;;;;;;;2.35;1.70;;;;;;;20.31;42.91;99680.66;5013604;28;20064;-73
2020/12/19 06:01:46;;;;;;;2.03;1.60;;;;;;;20.32;42.65;99670.97;5013212;28;20034;-72
2020/12/19 06:04:13;;;;;;;3.28;2.03;;;;;;;20.31;42.83;99666.63;5002950;28;20087;-73
2020/12/19 06:06:40;;;;;;;2.80;1.95;;;;;;;20.32;42.98;99681.50;5013899;28;20041;-76
2020/12/19 06:09:10;;;;;;;2.72;1.75;;;;;;;20.32;42.91;99677.09;5009128;28;20050;-78
2020/12/19 06:11:43;;;;;;;2.20;1.55;;;;;;;20.31;42.80;99678.03;4995305;28;20042;-75
2020/12/19 06:14:11;;;;;;;2.30;1.77;;;;;;;20.33;42.94;99680.59;4993563;28;20042;-71
2020/12/19 06:16:48;;;;;;;4.13;1.85;;;;;;;20.31;43.05;99674.50;4999591;28;20506;-72
2020/12/19 06:19:16;;;;;;;2.55;1.63;;;;;;;20.33;42.72;99678.81;5013284;28;20030;-75
2020/12/19 06:21:47;;;;;;;2.50;1.70;;;;;;;20.32;42.70;99674.44;5011923;28;20030;-76
2020/12/19 06:24:46;;;;;;;2.90;1.63;;;;;;;20.33;42.73;99681.44;5029991;28;20879;-74
2020/12/19 06:27:17;;;;;;;1.95;1.60;;;;;;;20.34;42.82;99680.53;5026594;28;20030;-75
2020/12/19 06:29:43;;;;;;;3.00;1.77;;;;;;;20.35;42.80;99678.78;5016588;28;20029;-72
2020/12/19 06:32:17;;;;;;;2.17;1.52;;;;;;;20.34;42.83;99671.78;5015670;28;20046;-76
2020/12/19 06:34:43;;;;;;;3.05;1.75;;;;;;;20.34;42.74;99671.78;5012676;28;20517;-72
2020/12/19 06:37:19;;;;;;;2.20;1.65;;;;;;;20.33;42.95;99664.81;4999647;28;20050;-76
2020/12/19 06:40:08;;;;;;;1.88;1.60;;;;;;;20.32;42.84;99663.94;4994474;28;20073;-76
2020/12/19 06:42:34;;;;;;;3.75;2.15;;;;;;;20.35;42.72;99670.88;4993248;28;20049;-75
2020/12/19 06:45:18;;;;;;;2.95;1.98;;;;;;;20.33;42.84;99667.44;4993232;28;20030;-71
2020/12/19 06:47:43;;;;;;;;;;;;;;;20.32;42.89;99673.59;5007932;28;20061;-76
2020/12/19 06:50:08;;;;;;;2.45;1.77;;;;;;;20.33;43.03;99681.44;5003461;28;20366;-70
2020/12/19 06:52:34;;;;;;;3.92;1.60;;;;;;;20.32;43.08;99679.72;4994676;28;20089;-72
2020/12/19 06:55:16;;;;;;;3.22;1.92;;;;;;;20.33;43.05;99684.06;4994449;28;20093;-74
2020/12/19 06:57:49;;;;;;;2.83;1.95;;;;;;;20.34;43.01;99687.59;4993060;28;20034;-74
2020/12/19 07:00:20;;;;;;;2.20;1.58;;;;;;;20.34;42.94;99674.44;4994235;28;20035;-76
2020/12/19 07:02:58;;;;;;;3.78;1.80;;;;;;;20.34;42.84;99677.91;4999584;28;20096;-75
2020/12/19 07:05:27;;;;;;;3.60;2.03;;;;;;;20.35;42.88;99677.00;5012923;28;20038;-75
2020/12/19 07:07:53;;;;;;;2.70;1.85;;;;;;;20.35;42.94;99682.25;5011505;28;20103;-75
2020/12/19 07:10:38;;;;;;;2.40;1.70;;;;;;;20.34;43.02;99666.53;5011899;28;20117;-73
2020/12/19 07:13:04;;;;;;;2.78;1.95;;;;;;;20.38;42.92;99668.16;5011663;28;20049;-73
2020/12/19 07:15:52;;;;;;;5.95;1.60;;;;;;;20.39;43.01;99670.75;5012172;28;20096;-72
2020/12/19 07:18:32;;;;;;;2.75;1.50;;;;;;;20.40;43.06;99671.59;4977733;28;20038;-73
2020/12/19 07:21:09;;;;;;;2.03;1.73;;;;;;;20.44;42.97;99669.75;4976686;28;20058;-73
2020/12/19 07:23:36;;;;;;;2.75;1.75;;;;;;;20.46;42.89;99675.81;5010290;28;20040;-74
2020/12/19 07:26:03;;;;;;;2.15;1.67;;;;;;;20.47;43.08;99677.56;5014003;28;20042;-72
2020/12/19 07:28:29;;;;;;;2.35;1.60;;;;;;;20.48;43.17;99679.25;5032283;28;20117;-73
2020/12/19 07:30:55;;;;;;;2.58;1.50;;;;;;;20.46;43.22;99681.94;5007322;28;20494;-72
2020/12/19 07:33:21;;;;;;;5.00;1.60;;;;;;;20.45;42.69;99682.84;4992382;28;20045;-78
2020/12/19 07:35:46;;;;;;;3.95;1.52;;;;;;;20.45;43.02;99689.91;5013256;28;20033;-77
2020/12/19 07:38:12;;;;;;;4.43;1.60;;;;;;;20.45;43.12;99682.84;5029928;28;20061;-78
2020/12/19 07:40:38;;;;;;;3.67;1.77;;;;;;;20.44;42.99;99677.63;5007639;28;20101;-75
2020/12/19 07:43:08;;;;;;;4.30;1.52;;;;;;;20.45;43.05;99677.59;4992273;28;20046;-77
2020/12/19 07:45:36;;;;;;;6.93;1.98;;;;;;;20.46;42.97;99678.47;4993320;28;20406;-75
2020/12/19 07:48:02;;;;;;;8.95;2.60;;;;;;;20.45;42.98;99685.47;4992690;28;20038;-74
2020/12/19 07:50:29;;;;;;;3.22;2.08;;;;;;;20.47;43.06;99682.81;4992253;28;20038;-73
2020/12/19 07:53:01;;;;;;;9.65;1.80;;;;;;;20.46;42.78;99686.34;4993594;28;20669;-75
2020/12/19 07:55:27;;;;;;;6.93;2.33;;;;;;;20.49;42.99;99683.59;4992811;28;20090;-75
2020/12/19 07:57:54;;;;;;;5.10;2.05;;;;;;;20.52;43.08;99694.91;4993344;28;20064;-79
2020/12/19 08:00:23;;;;;;;5.53;2.00;;;;;;;20.53;43.14;99686.13;4993055;28;20050;-72
2020/12/19 08:02:49;;;;;;;16.70;2.13;;;;;;;20.58;43.13;99687.72;4992723;28;20121;-75
2020/12/19 08:05:14;;;;;;;6.50;2.00;;;;;;;20.62;42.74;99686.72;4993350;28;20531;-73
2020/12/19 08:07:40;;;;;;;6.88;1.98;;;;;;;20.92;42.39;99677.03;4993185;28;20033;-74
2020/12/19 08:10:08;;;;;;;7.47;1.90;;;;;;;21.37;41.65;99679.94;4991402;28;20488;-75
2020/12/19 08:12:34;;;;;;;4.68;1.80;;;;;;;21.68;41.00;99671.00;4993025;28;20038;-78
2020/12/19 08:15:03;;;;;;;7.75;2.15;;;;;;;21.42;41.47;99673.59;4992911;28;20068;-77
2020/12/19 08:17:29;;;;;;;5.47;2.42;;;;;;;21.25;41.92;99674.19;5001532;28;20042;-74
2020/12/19 08:19:59;;;;;;;11.65;2.38;;;;;;;21.21;42.04;99667.28;4992860;28;20118;-73
2020/12/19 08:22:26;;;;;;;7.78;2.47;;;;;;;22.09;40.51;99668.59;5001137;28;20060;-74
2020/12/19 08:24:52;;;;;;;9.20;2.50;;;;;;;22.96;39.07;99662.59;5012368;28;20030;-72
2020/12/19 08:27:33;;;;;;;3.53;2.20;;;;;;;23.00;39.43;99669.44;5012498;28;20052;-72
2020/12/19 08:30:07;;;;;;;6.55;2.83;;;;;;;22.66;39.76;99673.47;5012088;28;20108;-77
2020/12/19 08:32:33;;;;;;;6.15;2.00;;;;;;;22.73;39.24;99676.75;5010895;28;20044;-72
2020/12/19 08:34:59;;;;;;;15.25;2.83;;;;;;;22.28;40.13;99673.16;5012079;28;20033;-76
2020/12/19 08:37:25;;;;;;;7.00;2.03;;;;;;;22.31;40.31;99686.25;5012068;28;20030;-75
2020/12/19 08:40:14;;;;;;;7.88;2.50;;;;;;;22.33;40.36;99677.34;5012312;28;20030;-75
2020/12/19 08:42:40;;;;;;;11.63;3.17;;;;;;;22.71;39.92;99670.66;5012386;28;20414;-77
2020/12/19 08:45:23;;;;;;;12.35;4.03;;;;;;;22.72;40.14;99675.88;5012218;28;20073;-74
2020/12/19 08:47:52;;;;;;;5.95;2.65;;;;;;;23.40;38.93;99667.81;5011860;28;20049;-74
2020/12/19 08:50:22;;;;;;;5.68;2.40;;;;;;;23.61;38.49;99675.72;5012061;28;20108;-73
2020/12/19 08:52:47;;;;;;;6.90;2.88;;;;;;;24.04;37.85;99675.59;5011763;28;20109;-72
2020/12/19 08:55:12;;;;;;;5.50;2.72;;;;;;;24.28;37.51;99680.72;5011751;28;20562;-73
2020/12/19 08:57:42;;;;;;;7.20;2.60;;;;;;;24.06;37.60;99676.41;5012101;28;20042;-73
2020/12/19 09:00:11;;;;;;;8.05;2.85;;;;;;;24.30;37.37;99687.63;5011900;28;20088;-77
2020/12/19 09:02:38;;;;;;;8.07;2.63;;;;;;;24.57;36.92;99673.16;5011948;28;20479;-78
2020/12/19 09:05:05;;;;;;;11.65;2.58;;;;;;;25.01;36.40;99670.16;5012179;28;20122;-79
2020/12/19 09:07:31;;;;;;;5.43;2.38;;;;;;;25.58;35.29;99677.00;5011513;28;20376;-73
2020/12/19 09:09:56;;;;;;;6.00;2.92;;;;;;;25.56;35.25;99676.22;5011684;28;20033;-72
2020/12/19 09:12:23;;;;;;;4.88;2.45;;;;;;;24.58;37.46;99670.44;5011798;28;20105;-73
2020/12/19 09:14:49;;;;;;;5.47;2.85;;;;;;;24.70;36.90;99661.06;5011627;28;20132;-75
2020/12/19 09:17:30;;;;;;;5.47;2.67;;;;;;;25.46;36.20;99678.50;5011572;28;20109;-76
2020/12/19 09:20:04;;;;;;;7.63;2.22;;;;;;;24.91;36.96;99672.41;5010201;28;20477;-72
2020/12/19 09:22:29;;;;;;;6.85;2.60;;;;;;;24.01;38.20;99671.31;5009854;28;20034;-76
2020/12/19 09:24:54;;;;;;;11.05;3.10;;;;;;;23.53;38.96;99675.19;5011825;28;20372;-74
2020/12/19 09:27:20;;;;;;;8.00;2.35;;;;;;;23.27;39.37;99680.69;5024790;28;20395;-75
2020/12/19 09:29:45;;;;;;;6.70;2.75;;;;;;;23.12;39.91;99676.00;5031205;28;20065;-80
2020/12/19 09:32:10;;;;;;;7.82;2.28;;;;;;;23.08;40.03;99685.88;5031149;28;20034;-73
2020/12/19 09:34:36;;;;;;;7.22;2.58;;;;;;;23.02;40.15;99683.47;5031391;28;20041;-76
2020/12/19 09:37:01;;;;;;;14.60;2.22;;;;;;;22.93;40.55;99679.41;5031187;28;20029;-75
2020/12/19 09:39:27;;;;;;;9.43;2.70;;;;;;;22.78;40.70;99675.63;5031206;28;20036;-74
2020/12/19 09:41:52;;;;;;;5.22;2.38;;;;;;;22.71;40.67;99690.00;5010059;28;20037;-79
2020/12/19 09:44:18;;;;;;;19.58;2.83;;;;;;;22.73;40.66;99676.75;5029547;28;20107;-79
2020/12/19 09:46:45;;;;;;;10.73;2.83;;;;;;;22.69;40.88;99683.91;5029390;28;20083;-75
2020/12/19 09:49:10;;;;;;;13.98;3.80;;;;;;;22.66;40.92;99678.75;5028759;28;20037;-78
2020/12/19 09:51:36;;;;;;;26.60;4.45;;;;;;;22.61;41.03;99686.00;5010221;28;20038;-76
2020/12/19 09:54:01;;;;;;;24.55;3.47;;;;;;;22.56;40.99;99673.00;5008836;28;20038;-77
2020/12/19 09:56:27;;;;;;;18.85;3.45;;;;;;;22.47;41.08;99676.84;5006990;28;20030;-76
2020/12/19 09:58:52;;;;;;;13.48;3.15;;;;;;;22.40;41.28;99680.63;4990254;28;20034;-75
2020/12/19 10:01:17;;;;;;;15.13;3.75;;;;;;;22.39;41.33;99678.88;4991254;28;20046;-76
2020/12/19 10:03:43;;;;;;;17.05;3.20;;;;;;;22.36;41.84;99677.25;4991650;28;20053;-75
2020/12/19 10:06:08;;;;;;;18.02;3.33;;;;;;;22.32;41.51;99677.41;4992050;28;20046;-73
2020/12/19 10:08:34;;;;;;;14.98;3.42;;;;;;;22.29;41.59;99675.75;4992436;28;20053;-77
2020/12/19 10:10:59;;;;;;;7.05;2.20;;;;;;;22.26;41.66;99669.72;4990490;28;20033;-75
2020/12/19 10:13:25;;;;;;;12.55;3.03;;;;;;;22.25;41.57;99678.56;4991741;28;20542;-76
2020/12/19 10:15:50;;;;;;;15.27;2.80;;;;;;;22.28;41.51;99673.16;4991295;28;20053;-75
2020/12/19 10:18:15;;;;;;;15.90;2.58;;;;;;;22.32;41.56;99669.50;5011161;28;20046;-73
2020/12/19 10:20:41;;;;;;;12.77;2.70;;;;;;;22.32;41.53;99666.88;5010858;28;20509;-78
2020/12/19 10:23:06;;;;;;;16.52;2.85;;;;;;;22.30;41.56;99668.69;5009697;28;20397;-71
2020/12/19 10:25:32;;;;;;;15.68;3.47;;;;;;;22.25;41.71;99655.69;5011232;28;20034;-80
2020/12/19 10:27:57;;;;;;;7.38;2.33;;;;;;;22.24;41.67;99658.38;5031663;28;20037;-74
2020/12/19 10:30:24;;;;;;;7.93;2.15;;;;;;;22.25;41.78;99665.38;5024414;28;20044;-75
2020/12/19 10:32:49;;;;;;;14.30;2.75;;;;;;;22.25;41.78;99647.78;5023276;28;20064;-79
2020/12/19 10:35:14;;;;;;;6.05;1.95;;;;;;;22.27;41.77;99640.63;5033438;28;20041;-73
2020/12/19 10:37:40;;;;;;;10.98;3.33;;;;;;;22.28;41.76;99638.84;4994880;28;20043;-74
2020/12/19 10:40:05;;;;;;;8.70;2.33;;;;;;;22.25;42.02;99645.13;4995919;28;20042;-72
2020/12/19 10:42:31;;;;;;;13.30;2.03;;;;;;;22.24;41.78;99635.50;5010033;28;20038;-72
2020/12/19 10:44:56;;;;;;;7.40;2.03;;;;;;;22.23;41.94;99638.16;5013620;28;20041;-74
2020/12/19 10:47:22;;;;;;;5.20;2.50;;;;;;;22.24;41.85;99635.50;5013883;28;20121;-79
2020/12/19 10:49:48;;;;;;;14.68;3.10;;;;;;;22.21;41.92;99627.69;5006389;28;20038;-75
2020/12/19 10:52:13;;;;;;;5.90;2.40;;;;;;;22.24;41.92;99634.63;4993044;28;20049;-76
2020/12/19 10:54:38;;;;;;;9.98;2.30;;;;;;;22.20;41.95;99623.31;5008305;28;20494;-76
2020/12/19 10:57:04;;;;;;;5.80;1.77;;;;;;;22.18;41.90;99615.47;5013823;28;20117;-76
2020/12/19 10:59:29;;;;;;;6.80;1.90;;;;;;;22.16;42.12;99617.31;5012471;28;20465;-76
2020/12/19 11:01:56;;;;;;;4.88;1.75;;;;;;;22.17;42.13;99615.53;5012582;28;20072;-75
2020/12/19 11:04:21;;;;;;;6.38;2.30;;;;;;;22.17;42.13;99615.53;5013785;28;20041;-74
2020/12/19 11:06:47;;;;;;;13.10;3.45;;;;;;;22.26;41.91;99596.72;5014468;28;20030;-76
2020/12/19 11:09:13;;;;;;;13.15;2.72;;;;;;;22.32;41.99;99603.50;5008543;28;20030;-79
2020/12/19 11:11:38;;;;;;;8.60;2.63;;;;;;;22.35;41.88;99606.00;5011699;28;20042;-79
2020/12/19 11:14:04;;;;;;;7.57;2.42;;;;;;;22.33;41.88;99608.72;5004788;28;20042;-74
2020/12/19 11:16:30;;;;;;;14.00;3.22;;;;;;;22.34;41.75;99609.59;4999592;28;20056;-77
2020/12/19 11:18:56;;;;;;;14.93;3.60;;;;;;;22.33;41.81;99607.88;5013714;28;20034;-76
2020/12/19 11:21:22;;;;;;;10.60;3.22;;;;;;;22.32;41.88;99603.50;5014243;28;20037;-79
2020/12/19 11:23:48;;;;;;;12.13;3.25;;;;;;;22.33;41.78;99621.91;5012775;28;20046;-75
2020/12/19 11:26:18;;;;;;;9.27;3.40;;;;;;;22.33;41.94;99621.91;5000473;28;20486;-76
2020/12/19 11:28:47;;;;;;;15.07;3.65;;;;;;;22.33;42.00;99624.56;5023487;28;20091;-77
2020/12/19 11:31:14;;;;;;;14.02;3.63;;;;;;;22.36;42.06;99626.22;5009403;28;20073;-80